Alpharetta, GA

12:31 PM EDT on October 31, 2014 (GMT -0400)
River Lake Subdivision | Change Station
CLOSE
Current Station
Personal Weather Station
Location: Woodstock, GA
Elevation: 1112 ft
Nearby Weather Stations

Elev 1112 ft 34.12 °N, 84.39 °W | Updated 57 seconds ago

Partly Cloudy
Partly Cloudy
61.9 °F
Feels Like 61.9 °F
N
3.2
Wind Variable Wind from NE

Today
High -- | Low -- °F
--% Chance of Precip.
Yesterday
High -- | Low -- °F
Precip. -- in
7:56 AM 6:45 PM
First Quarter, 56% visible
Pressure 29.95 in
Visibility 10.0 miles
Clouds Mostly Cloudy 8500 ft
Overcast 9000 ft
Dew Point 46 °F
Humidity 55%
Rainfall 0.00 in
Snow Depth Not available.
UV 2 out of 12
Pollen 2.40 out of 12
Air Quality Not available.
Flu Activity Not available.
METAR KCNI 311615Z AUTO 00000KT 10SM BKN085 OVC090 13/03 A2995 RMK AO2

More Conditions Fewer Conditions

Pressure 29.95 in
Visibility 10.0 miles
Clouds Mostly Cloudy 8500 ft
Overcast 9000 ft
Dew Point 46 °F
Humidity 55%
Rainfall 0.00 in
Snow Depth Not available.
UV 2 out of 12
Pollen 2.40 out of 12
Air Quality Not available.
Flu Activity Not available.
METAR KCNI 311615Z AUTO 00000KT 10SM BKN085 OVC090 13/03 A2995 RMK AO2

More Conditions Fewer Conditions

10-Day Weather Forecast

Almanac

Astronomy

Oct. 31, 2014 Rise Set
Actual Time
Civil Twilight
Nautical Twilight
Astronomical Twilight
Moon
Length of Visible Light
Length of Day
Tomorrow will be .
, % of the Moon is Illuminated

Today's Extremes

State Highs State Lows

Community

WunderPhotos

Upload Photos

1,766,656 photos uploaded!

WunderBlogs® & News

Nearby

Air Quality

  Air Quality AQ Index Pollutant
Not available.

Snow Depth

Station Depth Elevation

Earthquake Activity

City Distance Mag. Time & Date
Minimum magnitude displayed is 2.5.

Coastal Water Temperatures

Place Temperature

Nearby Weather Stations